Skip to main content.
Our real time weather data display below is updated continuously via our 24/7 live data feed.
 TIME   TEMPERATURE   WINDSPEED   DIRECTION   HUMIDITY   BAROMETER   RAINFALL 
15:50 15.0°C (59.0°F) 20.4 kmh (12.7 mph) ENE 76% 1011.9hPa (29.88 inHg) 3.0mm (0.12 in.)
14:50 14.0°C (57.2 °F) 24.1 kmh (15.0 mph) ENE 87% 1011.9hPa (29.88 inHg) 3.0mm (0.12 in.)
13:50 14.0°C (57.2 °F) 22.2 kmh (13.8 mph) E 87% 1012.9hPa (29.91 inHg) 3.0mm (0.12 in.)
12:48 13.0°C (55.4 °F) 20.4 kmh (12.7 mph) E 87% 1012.9hPa (29.91 inHg) 1.0mm (0.04 in.)
11:48 12.0°C (53.6 °F) 16.7 kmh (10.4 mph) ESE 93% 1014.9hPa (29.97 inHg) 1.0mm (0.04 in.)
10:48 12.0°C (53.6 °F) 18.5 kmh (11.5 mph) ESE 93% 1013.9hPa (29.94 inHg) 0.0mm (0.00 in.)
9:48 13.0°C (55.4 °F) 25.9 kmh (16.1 mph) SE 87% 1014.9hPa (29.97 inHg) 0.0mm (0.00 in.)
8:48 13.0°C (55.4 °F) 22.2 kmh (13.8 mph) ESE 93% 1013.9hPa (29.94 inHg) 0.0mm (0.00 in.)
7:48 13.0°C (55.4 °F) 22.2 kmh (13.8 mph) ESE 87% 1012.9hPa (29.91 inHg) 0.0mm (0.00 in.)
6:48 13.0°C (55.4 °F) 27.8 kmh (17.3 mph) ESE 93% 1012.9hPa (29.91 inHg) 0.0mm (0.00 in.)
5:48 14.0°C (57.2 °F) 27.8 kmh (17.3 mph) ESE 87% 1013.9hPa (29.94 inHg) 0.0mm (0.00 in.)
4:48 14.0°C (57.2 °F) 25.9 kmh (16.1 mph) ESE 87% 1014.9hPa (29.97 inHg) 0.0mm (0.00 in.)
3:48 14.0°C (57.2 °F) 22.2 kmh (13.8 mph) ESE 82% 1015.9hPa (30.00 inHg) 0.0mm (0.00 in.)
2:48 14.0°C (57.2 °F) 25.9 kmh (16.1 mph) E 82% 1014.9hPa (29.97 inHg) 0.0mm (0.00 in.)
1:48 14.0°C (57.2 °F) 29.6 kmh (18.4 mph) ESE 82% 1016.9hPa (30.03 inHg) 0.0mm (0.00 in.)
0:48 14.0°C (57.2 °F) 25.9 kmh (16.1 mph) ESE 82% 1017.9hPa (30.06 inHg) 0.0mm (0.00 in.)
23:48 14.0°C (57.2 °F) 25.9 kmh (16.1 mph) ESE 82% 1019.0hPa (30.09 inHg) 0.0mm (0.00 in.)
22:48 13.0°C (55.4 °F) 20.4 kmh (12.7 mph) E 87% 1019.0hPa (30.09 inHg) 0.0mm (0.00 in.)
21:48 14.0°C (57.2 °F) 22.2 kmh (13.8 mph) E 82% 1019.0hPa (30.09 inHg) 0.0mm (0.00 in.)
20:48 14.0°C (57.2 °F) 24.1 kmh (15.0 mph) E 82% 1019.0hPa (30.09 inHg) 0.0mm (0.00 in.)
19:48 14.0°C (57.2 °F) 22.2 kmh (13.8 mph) E 82% 1019.0hPa (30.09 inHg) 0.0mm (0.00 in.)
18:48 14.0°C (57.2 °F) 22.2 kmh (13.8 mph) E 82% 1019.0hPa (30.09 inHg) 0.0mm (0.00 in.)
17:48 15.0°C (59.0 °F) 24.1 kmh (15.0 mph) E 76% 1020.0hPa (30.12 inHg) 0.0mm (0.00 in.)
16:48 15.0°C (59.0 °F) 25.9 kmh (16.1 mph) ESE 76% 1020.0hPa (30.12 inHg) 0.0mm (0.00 in.)